sensor_id;sensor_type;location;lat;lon;timestamp;pressure;altitude;pressure_sealevel;temperature;humidity
51083;BME280;37131;42.694;23.350;2022-08-19T00:01:44;95177.22;;;22.12;60.47
51083;BME280;37131;42.694;23.350;2022-08-19T00:04:13;95182.03;;;22.10;60.94
51083;BME280;37131;42.694;23.350;2022-08-19T00:06:41;95194.09;;;22.16;60.11
51083;BME280;37131;42.694;23.350;2022-08-19T00:09:09;95194.34;;;21.92;61.49
51083;BME280;37131;42.694;23.350;2022-08-19T00:11:36;95151.84;;;21.69;62.03
51083;BME280;37131;42.694;23.350;2022-08-19T00:14:04;95190.94;;;21.77;62.73
51083;BME280;37131;42.694;23.350;2022-08-19T00:16:30;95190.16;;;21.77;62.70
51083;BME280;37131;42.694;23.350;2022-08-19T00:18:55;95189.19;;;21.59;64.00
51083;BME280;37131;42.694;23.350;2022-08-19T00:21:22;95199.00;;;21.58;63.21
51083;BME280;37131;42.694;23.350;2022-08-19T00:23:48;95198.09;;;21.49;64.11
51083;BME280;37131;42.694;23.350;2022-08-19T00:26:14;95160.06;;;21.26;63.14
51083;BME280;37131;42.694;23.350;2022-08-19T00:28:39;95198.50;;;21.56;63.20
51083;BME280;37131;42.694;23.350;2022-08-19T00:31:07;95202.84;;;21.52;63.21
51083;BME280;37131;42.694;23.350;2022-08-19T00:33:33;95205.59;;;21.61;62.72
51083;BME280;37131;42.694;23.350;2022-08-19T00:36:00;95181.81;;;21.55;62.52
51083;BME280;37131;42.694;23.350;2022-08-19T00:38:26;95197.03;;;21.64;63.10
51083;BME280;37131;42.694;23.350;2022-08-19T00:40:52;95145.22;;;21.11;64.00
51083;BME280;37131;42.694;23.350;2022-08-19T00:43:22;95189.25;;;21.40;64.08
51083;BME280;37131;42.694;23.350;2022-08-19T00:45:49;95179.13;;;21.42;63.29
51083;BME280;37131;42.694;23.350;2022-08-19T00:48:16;95191.44;;;21.51;62.24
51083;BME280;37131;42.694;23.350;2022-08-19T00:50:43;95187.78;;;21.47;61.83
51083;BME280;37131;42.694;23.350;2022-08-19T00:53:10;95190.72;;;21.46;61.58
51083;BME280;37131;42.694;23.350;2022-08-19T00:55:37;95186.13;;;21.51;61.44
51083;BME280;37131;42.694;23.350;2022-08-19T00:58:12;95196.63;;;21.43;62.42
51083;BME280;37131;42.694;23.350;2022-08-19T01:00:39;95191.31;;;21.43;62.24
51083;BME280;37131;42.694;23.350;2022-08-19T01:03:11;95195.03;;;21.28;63.15
51083;BME280;37131;42.694;23.350;2022-08-19T01:05:37;95190.63;;;21.37;61.86
51083;BME280;37131;42.694;23.350;2022-08-19T01:08:06;95204.47;;;21.34;59.91
51083;BME280;37131;42.694;23.350;2022-08-19T01:10:35;95199.53;;;21.27;59.58
51083;BME280;37131;42.694;23.350;2022-08-19T01:13:03;95218.38;;;21.26;59.83
51083;BME280;37131;42.694;23.350;2022-08-19T01:15:32;95196.59;;;21.29;59.49
51083;BME280;37131;42.694;23.350;2022-08-19T01:18:02;95179.41;;;21.26;59.32
51083;BME280;37131;42.694;23.350;2022-08-19T01:20:30;95199.16;;;21.34;59.36
51083;BME280;37131;42.694;23.350;2022-08-19T01:22:58;95198.16;;;21.16;60.79
51083;BME280;37131;42.694;23.350;2022-08-19T01:25:49;95197.88;;;21.31;60.16
51083;BME280;37131;42.694;23.350;2022-08-19T01:28:23;95166.31;;;21.02;60.82
51083;BME280;37131;42.694;23.350;2022-08-19T01:30:51;95114.69;;;20.53;62.03
51083;BME280;37131;42.694;23.350;2022-08-19T01:33:17;95202.22;;;20.94;62.96
51083;BME280;37131;42.694;23.350;2022-08-19T01:35:44;95191.78;;;20.70;64.70
51083;BME280;37131;42.694;23.350;2022-08-19T01:38:22;95194.41;;;20.70;63.99
51083;BME280;37131;42.694;23.350;2022-08-19T01:40:48;95187.06;;;20.48;67.10
51083;BME280;37131;42.694;23.350;2022-08-19T01:43:15;95183.81;;;20.51;65.91
51083;BME280;37131;42.694;23.350;2022-08-19T01:45:40;95160.44;;;20.01;66.23
51083;BME280;37131;42.694;23.350;2022-08-19T01:48:06;95143.06;;;20.14;65.16
51083;BME280;37131;42.694;23.350;2022-08-19T01:50:33;95194.72;;;20.68;64.97
51083;BME280;37131;42.694;23.350;2022-08-19T01:53:00;95200.22;;;20.72;64.68
51083;BME280;37131;42.694;23.350;2022-08-19T01:55:26;95181.09;;;20.75;64.12
51083;BME280;37131;42.694;23.350;2022-08-19T01:57:56;95154.03;;;20.40;65.77
51083;BME280;37131;42.694;23.350;2022-08-19T02:00:24;95205.44;;;20.39;66.78
51083;BME280;37131;42.694;23.350;2022-08-19T02:02:50;95206.88;;;20.31;67.94
51083;BME280;37131;42.694;23.350;2022-08-19T02:05:16;95197.13;;;20.27;67.60
51083;BME280;37131;42.694;23.350;2022-08-19T02:07:43;95208.88;;;20.21;68.17
51083;BME280;37131;42.694;23.350;2022-08-19T02:10:13;95200.94;;;20.21;68.25
51083;BME280;37131;42.694;23.350;2022-08-19T02:12:39;95195.16;;;20.19;70.03
51083;BME280;37131;42.694;23.350;2022-08-19T02:15:04;95202.38;;;20.32;69.52
51083;BME280;37131;42.694;23.350;2022-08-19T02:17:31;95195.94;;;20.38;69.13
51083;BME280;37131;42.694;23.350;2022-08-19T02:19:56;95195.16;;;20.38;68.49
51083;BME280;37131;42.694;23.350;2022-08-19T02:22:23;95197.78;;;20.19;69.17
51083;BME280;37131;42.694;23.350;2022-08-19T02:24:51;95159.66;;;19.82;70.29
51083;BME280;37131;42.694;23.350;2022-08-19T02:27:17;95203.09;;;20.19;69.92
51083;BME280;37131;42.694;23.350;2022-08-19T02:29:42;95212.31;;;20.21;69.13
51083;BME280;37131;42.694;23.350;2022-08-19T02:32:08;95166.88;;;19.95;68.82
51083;BME280;37131;42.694;23.350;2022-08-19T02:34:34;95208.69;;;20.36;67.60
51083;BME280;37131;42.694;23.350;2022-08-19T02:36:59;95205.22;;;20.36;65.20
51083;BME280;37131;42.694;23.350;2022-08-19T02:39:25;95205.38;;;20.25;66.30
51083;BME280;37131;42.694;23.350;2022-08-19T02:41:51;95203.44;;;20.12;66.90
51083;BME280;37131;42.694;23.350;2022-08-19T02:44:17;95210.69;;;19.82;68.64
51083;BME280;37131;42.694;23.350;2022-08-19T02:46:45;95208.13;;;19.72;68.75
51083;BME280;37131;42.694;23.350;2022-08-19T02:49:11;95159.16;;;19.31;69.76
51083;BME280;37131;42.694;23.350;2022-08-19T02:51:39;95213.72;;;19.70;69.38
51083;BME280;37131;42.694;23.350;2022-08-19T02:54:06;95212.50;;;19.62;69.47
51083;BME280;37131;42.694;23.350;2022-08-19T02:56:35;95211.69;;;19.62;68.60
51083;BME280;37131;42.694;23.350;2022-08-19T02:59:01;95225.84;;;19.47;70.18
51083;BME280;37131;42.694;23.350;2022-08-19T03:01:30;95219.22;;;19.25;71.58
51083;BME280;37131;42.694;23.350;2022-08-19T03:03:57;95222.72;;;19.21;72.31
51083;BME280;37131;42.694;23.350;2022-08-19T03:06:23;95219.69;;;19.03;73.24
51083;BME280;37131;42.694;23.350;2022-08-19T03:08:50;95218.66;;;18.99;74.06
51083;BME280;37131;42.694;23.350;2022-08-19T03:13:43;95217.41;;;18.91;74.92
51083;BME280;37131;42.694;23.350;2022-08-19T03:16:09;95215.56;;;18.92;74.71
51083;BME280;37131;42.694;23.350;2022-08-19T03:18:35;95131.22;;;18.37;74.84
51083;BME280;37131;42.694;23.350;2022-08-19T03:21:01;95205.97;;;19.01;74.30
51083;BME280;37131;42.694;23.350;2022-08-19T03:23:26;95206.56;;;18.93;74.59
51083;BME280;37131;42.694;23.350;2022-08-19T03:25:52;95161.16;;;18.56;75.46
51083;BME280;37131;42.694;23.350;2022-08-19T03:28:20;95213.41;;;18.94;75.49
51083;BME280;37131;42.694;23.350;2022-08-19T03:31:21;95165.69;;;18.51;76.39
51083;BME280;37131;42.694;23.350;2022-08-19T03:33:48;95215.34;;;18.83;77.69
51083;BME280;37131;42.694;23.350;2022-08-19T03:36:17;95208.53;;;18.72;77.31
51083;BME280;37131;42.694;23.350;2022-08-19T03:38:45;95221.72;;;18.77;78.31
51083;BME280;37131;42.694;23.350;2022-08-19T03:41:14;95169.22;;;18.36;78.66
51083;BME280;37131;42.694;23.350;2022-08-19T03:43:41;95219.25;;;18.91;77.15
51083;BME280;37131;42.694;23.350;2022-08-19T03:46:09;95220.56;;;18.93;76.68
51083;BME280;37131;42.694;23.350;2022-08-19T03:48:36;95229.19;;;19.04;76.26
51083;BME280;37131;42.694;23.350;2022-08-19T03:51:03;95187.75;;;18.65;77.24
51083;BME280;37131;42.694;23.350;2022-08-19T03:53:29;95230.53;;;19.02;77.18
51083;BME280;37131;42.694;23.350;2022-08-19T03:55:56;95235.31;;;19.00;76.57
51083;BME280;37131;42.694;23.350;2022-08-19T03:58:22;95243.75;;;19.02;77.01
51083;BME280;37131;42.694;23.350;2022-08-19T04:00:47;95240.50;;;19.10;75.58
51083;BME280;37131;42.694;23.350;2022-08-19T04:03:13;95251.34;;;19.08;76.85
51083;BME280;37131;42.694;23.350;2022-08-19T04:05:38;95249.69;;;19.18;75.91
51083;BME280;37131;42.694;23.350;2022-08-19T04:08:04;95249.56;;;19.28;76.01
51083;BME280;37131;42.694;23.350;2022-08-19T04:10:35;95252.38;;;19.13;75.03
51083;BME280;37131;42.694;23.350;2022-08-19T04:13:01;95249.34;;;19.24;75.26
51083;BME280;37131;42.694;23.350;2022-08-19T04:15:26;95254.97;;;19.18;75.44
51083;BME280;37131;42.694;23.350;2022-08-19T04:17:53;95253.53;;;19.31;74.58
51083;BME280;37131;42.694;23.350;2022-08-19T04:20:19;95246.19;;;19.52;73.96
51083;BME280;37131;42.694;23.350;2022-08-19T04:22:45;95257.03;;;19.50;73.21
51083;BME280;37131;42.694;23.350;2022-08-19T04:25:10;95251.22;;;19.24;73.96
51083;BME280;37131;42.694;23.350;2022-08-19T04:27:36;95248.69;;;19.38;73.90
51083;BME280;37131;42.694;23.350;2022-08-19T04:30:02;95266.50;;;19.56;73.37
51083;BME280;37131;42.694;23.350;2022-08-19T04:32:28;95266.06;;;19.49;73.07
51083;BME280;37131;42.694;23.350;2022-08-19T04:34:53;95264.72;;;19.22;73.96
51083;BME280;37131;42.694;23.350;2022-08-19T04:37:25;95266.69;;;19.06;75.12
51083;BME280;37131;42.694;23.350;2022-08-19T04:39:51;95272.53;;;19.03;74.71
51083;BME280;37131;42.694;23.350;2022-08-19T04:42:35;95261.13;;;18.68;76.26
51083;BME280;37131;42.694;23.350;2022-08-19T04:45:05;95268.63;;;18.51;76.98
51083;BME280;37131;42.694;23.350;2022-08-19T04:47:31;95271.31;;;18.46;77.28
51083;BME280;37131;42.694;23.350;2022-08-19T04:49:58;95260.75;;;18.46;77.32
51083;BME280;37131;42.694;23.350;2022-08-19T04:52:24;95264.47;;;18.45;77.33
51083;BME280;37131;42.694;23.350;2022-08-19T04:54:49;95267.81;;;18.55;76.83
51083;BME280;37131;42.694;23.350;2022-08-19T04:57:15;95265.44;;;18.59;76.41
51083;BME280;37131;42.694;23.350;2022-08-19T04:59:40;95256.84;;;18.77;75.85
51083;BME280;37131;42.694;23.350;2022-08-19T05:02:08;95267.34;;;18.93;75.05
51083;BME280;37131;42.694;23.350;2022-08-19T05:04:34;95264.91;;;18.97;74.89
51083;BME280;37131;42.694;23.350;2022-08-19T05:07:00;95268.50;;;19.11;74.14
51083;BME280;37131;42.694;23.350;2022-08-19T05:09:26;95275.78;;;19.24;74.11
51083;BME280;37131;42.694;23.350;2022-08-19T05:11:52;95272.13;;;19.50;74.04
51083;BME280;37131;42.694;23.350;2022-08-19T05:14:18;95262.94;;;19.66;72.71
51083;BME280;37131;42.694;23.350;2022-08-19T05:16:47;95266.06;;;19.73;74.09
51083;BME280;37131;42.694;23.350;2022-08-19T05:19:13;95254.31;;;19.85;72.74
51083;BME280;37131;42.694;23.350;2022-08-19T05:22:10;95263.88;;;20.24;70.45
51083;BME280;37131;42.694;23.350;2022-08-19T05:24:54;95264.28;;;20.36;70.26
51083;BME280;37131;42.694;23.350;2022-08-19T05:27:20;95264.19;;;20.41;69.85
51083;BME280;37131;42.694;23.350;2022-08-19T05:29:45;95271.06;;;20.23;69.54
51083;BME280;37131;42.694;23.350;2022-08-19T05:32:11;95261.09;;;20.34;69.67
51083;BME280;37131;42.694;23.350;2022-08-19T05:34:37;95269.28;;;20.57;69.15
51083;BME280;37131;42.694;23.350;2022-08-19T05:37:04;95249.25;;;20.70;67.09
51083;BME280;37131;42.694;23.350;2022-08-19T05:39:31;95267.56;;;21.04;66.36
51083;BME280;37131;42.694;23.350;2022-08-19T05:42:04;95272.00;;;20.90;66.18
51083;BME280;37131;42.694;23.350;2022-08-19T05:44:33;95265.97;;;21.03;64.75
51083;BME280;37131;42.694;23.350;2022-08-19T05:47:01;95275.94;;;20.92;65.92
51083;BME280;37131;42.694;23.350;2022-08-19T05:49:27;95274.06;;;21.26;64.33
51083;BME280;37131;42.694;23.350;2022-08-19T05:51:54;95220.03;;;21.08;63.21
51083;BME280;37131;42.694;23.350;2022-08-19T05:54:21;95260.16;;;21.48;63.50
51083;BME280;37131;42.694;23.350;2022-08-19T05:56:49;95267.00;;;21.68;63.72
51083;BME280;37131;42.694;23.350;2022-08-19T05:59:16;95264.16;;;21.78;64.32
51083;BME280;37131;42.694;23.350;2022-08-19T06:01:44;95258.06;;;21.92;64.37
51083;BME280;37131;42.694;23.350;2022-08-19T06:04:11;95261.03;;;21.76;63.00
51083;BME280;37131;42.694;23.350;2022-08-19T06:06:36;95264.16;;;22.06;62.70
51083;BME280;37131;42.694;23.350;2022-08-19T06:09:04;95265.81;;;22.02;63.44
51083;BME280;37131;42.694;23.350;2022-08-19T06:11:40;95266.19;;;22.23;62.61
51083;BME280;37131;42.694;23.350;2022-08-19T06:14:14;95268.06;;;22.22;62.32
51083;BME280;37131;42.694;23.350;2022-08-19T06:16:41;95265.59;;;22.26;60.91
51083;BME280;37131;42.694;23.350;2022-08-19T06:19:10;95269.66;;;22.23;61.48
51083;BME280;37131;42.694;23.350;2022-08-19T06:21:37;95267.13;;;22.55;60.09
51083;BME280;37131;42.694;23.350;2022-08-19T06:24:04;95268.50;;;22.66;60.03
51083;BME280;37131;42.694;23.350;2022-08-19T06:26:30;95272.59;;;22.72;59.06
51083;BME280;37131;42.694;23.350;2022-08-19T06:28:55;95269.59;;;22.51;60.01
51083;BME280;37131;42.694;23.350;2022-08-19T06:31:25;95271.69;;;22.54;59.44
51083;BME280;37131;42.694;23.350;2022-08-19T06:33:51;95260.75;;;22.78;58.02
51083;BME280;37131;42.694;23.350;2022-08-19T06:38:43;95275.19;;;22.64;57.26
51083;BME280;37131;42.694;23.350;2022-08-19T06:41:08;95271.47;;;22.51;58.33
51083;BME280;37131;42.694;23.350;2022-08-19T06:43:35;95269.06;;;22.63;58.19
51083;BME280;37131;42.694;23.350;2022-08-19T06:46:01;95269.13;;;22.72;58.49
51083;BME280;37131;42.694;23.350;2022-08-19T06:48:28;95261.53;;;22.56;57.92
51083;BME280;37131;42.694;23.350;2022-08-19T06:50:54;95227.66;;;22.85;57.00
51083;BME280;37131;42.694;23.350;2022-08-19T06:53:19;95270.38;;;22.88;56.40
51083;BME280;37131;42.694;23.350;2022-08-19T06:55:45;95271.06;;;23.17;56.35
51083;BME280;37131;42.694;23.350;2022-08-19T06:58:11;95267.03;;;23.28;56.00
51083;BME280;37131;42.694;23.350;2022-08-19T07:00:36;95273.69;;;23.39;55.30
51083;BME280;37131;42.694;23.350;2022-08-19T07:03:02;95268.31;;;23.62;56.58
51083;BME280;37131;42.694;23.350;2022-08-19T07:05:28;95275.03;;;23.91;53.69
51083;BME280;37131;42.694;23.350;2022-08-19T07:07:53;95283.66;;;23.88;53.78
51083;BME280;37131;42.694;23.350;2022-08-19T07:10:19;95271.47;;;23.64;54.48
51083;BME280;37131;42.694;23.350;2022-08-19T07:12:44;95279.44;;;23.95;53.51
51083;BME280;37131;42.694;23.350;2022-08-19T07:15:10;95266.94;;;24.13;53.81
51083;BME280;37131;42.694;23.350;2022-08-19T07:17:37;95275.03;;;23.91;53.63
51083;BME280;37131;42.694;23.350;2022-08-19T07:20:05;95275.44;;;24.24;53.07
51083;BME280;37131;42.694;23.350;2022-08-19T07:22:33;95260.28;;;24.42;52.21
51083;BME280;37131;42.694;23.350;2022-08-19T07:24:59;95277.09;;;24.60;51.21
51083;BME280;37131;42.694;23.350;2022-08-19T07:27:25;95277.22;;;24.81;50.52
51083;BME280;37131;42.694;23.350;2022-08-19T07:29:53;95263.38;;;24.35;51.79
51083;BME280;37131;42.694;23.350;2022-08-19T07:32:18;95267.81;;;24.66;51.55
51083;BME280;37131;42.694;23.350;2022-08-19T07:34:43;95272.22;;;24.80;51.61
51083;BME280;37131;42.694;23.350;2022-08-19T07:37:10;95266.69;;;24.41;50.99
51083;BME280;37131;42.694;23.350;2022-08-19T07:39:37;95261.56;;;24.62;50.35
51083;BME280;37131;42.694;23.350;2022-08-19T07:42:08;95260.78;;;24.97;50.15
51083;BME280;37131;42.694;23.350;2022-08-19T07:44:34;95263.69;;;25.30;48.65
51083;BME280;37131;42.694;23.350;2022-08-19T07:47:00;95257.88;;;25.37;48.69
51083;BME280;37131;42.694;23.350;2022-08-19T07:49:26;95255.97;;;25.46;47.70
51083;BME280;37131;42.694;23.350;2022-08-19T07:51:58;95260.81;;;25.62;47.52
51083;BME280;37131;42.694;23.350;2022-08-19T07:54:26;95268.25;;;25.30;48.69
51083;BME280;37131;42.694;23.350;2022-08-19T07:56:52;95266.63;;;25.55;48.79
51083;BME280;37131;42.694;23.350;2022-08-19T07:59:19;95259.72;;;25.92;48.15
51083;BME280;37131;42.694;23.350;2022-08-19T08:01:46;95256.34;;;26.13;46.42
51083;BME280;37131;42.694;23.350;2022-08-19T08:04:11;95254.16;;;26.36;46.27
51083;BME280;37131;42.694;23.350;2022-08-19T08:06:55;95256.25;;;26.52;46.02
51083;BME280;37131;42.694;23.350;2022-08-19T08:09:41;95252.38;;;26.61;45.93
51083;BME280;37131;42.694;23.350;2022-08-19T08:12:12;95253.84;;;26.80;46.16
51083;BME280;37131;42.694;23.350;2022-08-19T08:15:15;95246.00;;;26.96;44.00
51083;BME280;37131;42.694;23.350;2022-08-19T08:17:33;95241.09;;;26.98;44.15
51083;BME280;37131;42.694;23.350;2022-08-19T08:19:59;95246.06;;;27.21;43.98
51083;BME280;37131;42.694;23.350;2022-08-19T08:22:24;95238.88;;;27.34;43.13
51083;BME280;37131;42.694;23.350;2022-08-19T08:25:10;95238.25;;;27.49;42.39
51083;BME280;37131;42.694;23.350;2022-08-19T08:27:37;95237.69;;;27.43;42.13
51083;BME280;37131;42.694;23.350;2022-08-19T08:30:10;95240.47;;;27.47;42.10
51083;BME280;37131;42.694;23.350;2022-08-19T08:32:36;95236.34;;;27.62;42.28
51083;BME280;37131;42.694;23.350;2022-08-19T08:35:04;95227.75;;;27.81;41.92
51083;BME280;37131;42.694;23.350;2022-08-19T08:37:30;95235.91;;;27.72;42.53
51083;BME280;37131;42.694;23.350;2022-08-19T08:39:55;95227.44;;;27.95;42.01
51083;BME280;37131;42.694;23.350;2022-08-19T08:42:27;95229.13;;;28.12;41.60
51083;BME280;37131;42.694;23.350;2022-08-19T08:45:08;95225.28;;;28.38;40.83
51083;BME280;37131;42.694;23.350;2022-08-19T08:47:43;95223.03;;;28.40;40.58
51083;BME280;37131;42.694;23.350;2022-08-19T08:52:56;95221.44;;;28.63;39.24
51083;BME280;37131;42.694;23.350;2022-08-19T08:55:26;95215.44;;;28.82;39.83
51083;BME280;37131;42.694;23.350;2022-08-19T08:57:59;95209.78;;;29.00;39.33
51083;BME280;37131;42.694;23.350;2022-08-19T09:02:52;95206.44;;;29.35;37.50
51083;BME280;37131;42.694;23.350;2022-08-19T09:05:20;95206.38;;;29.31;36.88
51083;BME280;37131;42.694;23.350;2022-08-19T09:16:10;95199.44;;;29.78;35.11
51083;BME280;37131;42.694;23.350;2022-08-19T09:18:51;95195.59;;;29.95;33.56
51083;BME280;37131;42.694;23.350;2022-08-19T09:21:21;95184.81;;;30.11;33.78
51083;BME280;37131;42.694;23.350;2022-08-19T09:23:48;95188.31;;;30.31;34.22
51083;BME280;37131;42.694;23.350;2022-08-19T09:26:16;95188.97;;;30.44;32.94
51083;BME280;37131;42.694;23.350;2022-08-19T09:28:43;95182.94;;;30.31;33.73
51083;BME280;37131;42.694;23.350;2022-08-19T09:31:14;95175.09;;;30.42;32.79
51083;BME280;37131;42.694;23.350;2022-08-19T09:33:40;95174.78;;;30.27;33.05
51083;BME280;37131;42.694;23.350;2022-08-19T09:36:12;95168.44;;;30.55;32.32
51083;BME280;37131;42.694;23.350;2022-08-19T09:38:39;95166.19;;;30.77;31.77
51083;BME280;37131;42.694;23.350;2022-08-19T09:41:15;95169.53;;;30.93;30.60
51083;BME280;37131;42.694;23.350;2022-08-19T09:43:42;95161.06;;;30.72;29.57
51083;BME280;37131;42.694;23.350;2022-08-19T09:46:09;95169.09;;;30.91;29.59
51083;BME280;37131;42.694;23.350;2022-08-19T09:48:36;95165.56;;;31.07;29.21
51083;BME280;37131;42.694;23.350;2022-08-19T09:51:05;95167.00;;;30.81;28.93
51083;BME280;37131;42.694;23.350;2022-08-19T09:53:33;95165.75;;;31.18;30.36
51083;BME280;37131;42.694;23.350;2022-08-19T09:55:59;95165.31;;;31.39;29.95
51083;BME280;37131;42.694;23.350;2022-08-19T09:58:24;95155.34;;;31.62;27.67
51083;BME280;37131;42.694;23.350;2022-08-19T10:00:54;95156.00;;;31.82;29.17
51083;BME280;37131;42.694;23.350;2022-08-19T10:03:19;95150.75;;;31.93;28.52
51083;BME280;37131;42.694;23.350;2022-08-19T10:05:45;95146.34;;;32.08;28.04
51083;BME280;37131;42.694;23.350;2022-08-19T10:08:13;95112.00;;;31.75;28.07
51083;BME280;37131;42.694;23.350;2022-08-19T10:10:40;95147.50;;;32.11;27.76
51083;BME280;37131;42.694;23.350;2022-08-19T10:13:08;95144.56;;;32.20;27.41
51083;BME280;37131;42.694;23.350;2022-08-19T10:15:34;95140.13;;;32.34;28.04
51083;BME280;37131;42.694;23.350;2022-08-19T10:18:00;95131.47;;;32.52;29.31
51083;BME280;37131;42.694;23.350;2022-08-19T10:20:25;95130.34;;;32.57;28.81
51083;BME280;37131;42.694;23.350;2022-08-19T10:22:51;95137.88;;;32.40;28.34
51083;BME280;37131;42.694;23.350;2022-08-19T10:25:16;95127.19;;;32.17;29.16
51083;BME280;37131;42.694;23.350;2022-08-19T10:27:42;95124.69;;;32.01;28.71
51083;BME280;37131;42.694;23.350;2022-08-19T10:30:08;95126.88;;;32.18;28.67
51083;BME280;37131;42.694;23.350;2022-08-19T10:32:34;95123.44;;;32.22;28.77
51083;BME280;37131;42.694;23.350;2022-08-19T10:34:59;95128.72;;;32.14;28.81
51083;BME280;37131;42.694;23.350;2022-08-19T10:37:25;95116.00;;;32.45;27.23
51083;BME280;37131;42.694;23.350;2022-08-19T10:39:51;95128.16;;;32.01;28.60
51083;BME280;37131;42.694;23.350;2022-08-19T10:42:16;95117.44;;;32.39;28.41
51083;BME280;37131;42.694;23.350;2022-08-19T10:44:43;95118.81;;;32.60;27.99
51083;BME280;37131;42.694;23.350;2022-08-19T10:47:09;95125.34;;;32.55;27.31
51083;BME280;37131;42.694;23.350;2022-08-19T10:49:35;95106.34;;;32.48;27.83
51083;BME280;37131;42.694;23.350;2022-08-19T10:52:20;95115.50;;;32.06;28.44
51083;BME280;37131;42.694;23.350;2022-08-19T10:55:04;95103.25;;;32.46;28.09
51083;BME280;37131;42.694;23.350;2022-08-19T10:57:48;95101.59;;;32.68;29.31
51083;BME280;37131;42.694;23.350;2022-08-19T11:00:14;95100.19;;;32.85;28.71
51083;BME280;37131;42.694;23.350;2022-08-19T11:02:39;95098.00;;;32.94;28.48
51083;BME280;37131;42.694;23.350;2022-08-19T11:05:06;95111.50;;;32.94;27.75
51083;BME280;37131;42.694;23.350;2022-08-19T11:07:32;95099.38;;;32.77;27.90
51083;BME280;37131;42.694;23.350;2022-08-19T11:09:58;95098.06;;;33.01;28.19
51083;BME280;37131;42.694;23.350;2022-08-19T11:12:23;95099.09;;;33.34;27.67
51083;BME280;37131;42.694;23.350;2022-08-19T11:14:49;95098.28;;;33.30;27.13
51083;BME280;37131;42.694;23.350;2022-08-19T11:17:15;95085.56;;;32.86;27.34
51083;BME280;37131;42.694;23.350;2022-08-19T11:19:41;95100.38;;;33.03;27.34
51083;BME280;37131;42.694;23.350;2022-08-19T11:22:08;95100.00;;;33.04;28.94
51083;BME280;37131;42.694;23.350;2022-08-19T11:24:35;95097.09;;;33.24;27.11
51083;BME280;37131;42.694;23.350;2022-08-19T11:27:04;95098.41;;;32.59;27.47
51083;BME280;37131;42.694;23.350;2022-08-19T11:29:31;95081.72;;;32.87;28.46
51083;BME280;37131;42.694;23.350;2022-08-19T11:31:57;95086.69;;;32.85;27.23
51083;BME280;37131;42.694;23.350;2022-08-19T11:34:24;95078.34;;;32.97;29.08
51083;BME280;37131;42.694;23.350;2022-08-19T11:36:53;95073.91;;;33.23;27.82
51083;BME280;37131;42.694;23.350;2022-08-19T11:39:21;95078.03;;;33.06;29.43
51083;BME280;37131;42.694;23.350;2022-08-19T11:41:47;95079.84;;;32.91;27.87
51083;BME280;37131;42.694;23.350;2022-08-19T11:44:13;95067.09;;;33.40;26.85
51083;BME280;37131;42.694;23.350;2022-08-19T11:46:40;95064.28;;;33.22;26.26
51083;BME280;37131;42.694;23.350;2022-08-19T11:49:06;95064.16;;;33.11;28.98
51083;BME280;37131;42.694;23.350;2022-08-19T11:51:32;95051.28;;;33.42;28.19
51083;BME280;37131;42.694;23.350;2022-08-19T11:53:59;95060.75;;;33.73;26.72
51083;BME280;37131;42.694;23.350;2022-08-19T11:56:26;95047.25;;;33.81;26.92
51083;BME280;37131;42.694;23.350;2022-08-19T11:58:53;95053.13;;;33.94;26.12
51083;BME280;37131;42.694;23.350;2022-08-19T12:01:21;95059.72;;;33.96;25.91
51083;BME280;37131;42.694;23.350;2022-08-19T12:03:48;95045.00;;;33.94;25.46
51083;BME280;37131;42.694;23.350;2022-08-19T12:06:17;95036.53;;;34.06;26.18
51083;BME280;37131;42.694;23.350;2022-08-19T12:08:44;95044.97;;;33.86;27.38
51083;BME280;37131;42.694;23.350;2022-08-19T12:11:11;95028.47;;;34.17;27.51
51083;BME280;37131;42.694;23.350;2022-08-19T12:13:37;95033.94;;;34.38;26.16
51083;BME280;37131;42.694;23.350;2022-08-19T12:16:08;95030.50;;;34.49;25.05
51083;BME280;37131;42.694;23.350;2022-08-19T12:18:36;95015.44;;;34.62;25.60
51083;BME280;37131;42.694;23.350;2022-08-19T12:21:02;95029.72;;;34.48;25.66
51083;BME280;37131;42.694;23.350;2022-08-19T12:23:28;95017.78;;;34.78;25.51
51083;BME280;37131;42.694;23.350;2022-08-19T12:25:53;95020.06;;;34.72;24.56
51083;BME280;37131;42.694;23.350;2022-08-19T12:28:21;95015.09;;;34.78;24.34
51083;BME280;37131;42.694;23.350;2022-08-19T12:30:48;95008.13;;;34.84;24.79
51083;BME280;37131;42.694;23.350;2022-08-19T12:33:15;95006.97;;;34.78;25.20
51083;BME280;37131;42.694;23.350;2022-08-19T12:35:42;95010.84;;;34.88;24.79
51083;BME280;37131;42.694;23.350;2022-08-19T12:38:10;95009.69;;;34.89;24.87
51083;BME280;37131;42.694;23.350;2022-08-19T12:40:36;94999.19;;;34.40;24.89
51083;BME280;37131;42.694;23.350;2022-08-19T12:43:02;95001.91;;;34.55;24.98
51083;BME280;37131;42.694;23.350;2022-08-19T12:45:27;94996.06;;;34.46;24.93
51083;BME280;37131;42.694;23.350;2022-08-19T12:47:53;94967.38;;;34.01;24.97
51083;BME280;37131;42.694;23.350;2022-08-19T12:50:18;94995.34;;;34.67;25.81
51083;BME280;37131;42.694;23.350;2022-08-19T12:52:44;94993.41;;;34.78;25.78
51083;BME280;37131;42.694;23.350;2022-08-19T12:55:10;94989.94;;;35.03;25.14
51083;BME280;37131;42.694;23.350;2022-08-19T12:57:36;94991.47;;;35.14;24.90
51083;BME280;37131;42.694;23.350;2022-08-19T13:00:09;94995.25;;;35.57;24.69
51083;BME280;37131;42.694;23.350;2022-08-19T13:02:43;94993.78;;;36.30;23.92
51083;BME280;37131;42.694;23.350;2022-08-19T13:05:12;94989.19;;;36.20;22.87
51083;BME280;37131;42.694;23.350;2022-08-19T13:07:39;94996.00;;;35.61;23.99
51083;BME280;37131;42.694;23.350;2022-08-19T13:10:06;94984.44;;;35.50;24.49
51083;BME280;37131;42.694;23.350;2022-08-19T13:12:32;94967.09;;;35.07;23.45